sensor_id;sensor_type;location;lat;lon;timestamp;P1;durP1;ratioP1;P2;durP2;ratioP2
37483;SDS011;23337;52.212;9.926;2023-08-01T00:01:04;1.83;;;1.43;;
37483;SDS011;23337;52.212;9.926;2023-08-01T00:03:31;1.10;;;0.90;;
37483;SDS011;23337;52.212;9.926;2023-08-01T00:05:57;0.93;;;0.73;;
37483;SDS011;23337;52.212;9.926;2023-08-01T00:08:23;2.00;;;0.90;;
37483;SDS011;23337;52.212;9.926;2023-08-01T00:10:49;1.20;;;1.03;;
37483;SDS011;23337;52.212;9.926;2023-08-01T00:13:15;1.60;;;0.80;;
37483;SDS011;23337;52.212;9.926;2023-08-01T00:15:41;1.20;;;0.87;;
37483;SDS011;23337;52.212;9.926;2023-08-01T00:18:07;0.87;;;0.87;;
37483;SDS011;23337;52.212;9.926;2023-08-01T00:20:32;1.10;;;0.80;;
37483;SDS011;23337;52.212;9.926;2023-08-01T00:22:58;1.53;;;0.77;;
37483;SDS011;23337;52.212;9.926;2023-08-01T00:25:24;2.23;;;1.00;;
37483;SDS011;23337;52.212;9.926;2023-08-01T00:27:50;1.17;;;1.07;;
37483;SDS011;23337;52.212;9.926;2023-08-01T00:30:16;2.30;;;0.90;;
37483;SDS011;23337;52.212;9.926;2023-08-01T00:32:42;1.93;;;0.90;;
37483;SDS011;23337;52.212;9.926;2023-08-01T00:35:08;2.23;;;0.80;;
37483;SDS011;23337;52.212;9.926;2023-08-01T00:37:34;1.80;;;1.23;;
37483;SDS011;23337;52.212;9.926;2023-08-01T00:40:00;1.73;;;0.80;;
37483;SDS011;23337;52.212;9.926;2023-08-01T00:42:26;3.73;;;1.30;;
37483;SDS011;23337;52.212;9.926;2023-08-01T00:44:52;1.67;;;0.60;;
37483;SDS011;23337;52.212;9.926;2023-08-01T00:47:19;1.50;;;0.77;;
37483;SDS011;23337;52.212;9.926;2023-08-01T00:49:45;0.60;;;0.60;;
37483;SDS011;23337;52.212;9.926;2023-08-01T00:52:11;1.47;;;0.70;;
37483;SDS011;23337;52.212;9.926;2023-08-01T00:54:37;0.97;;;0.60;;
37483;SDS011;23337;52.212;9.926;2023-08-01T00:57:03;1.00;;;0.50;;
37483;SDS011;23337;52.212;9.926;2023-08-01T00:59:30;1.30;;;0.90;;
37483;SDS011;23337;52.212;9.926;2023-08-01T01:01:56;1.17;;;0.40;;
37483;SDS011;23337;52.212;9.926;2023-08-01T01:04:22;1.43;;;0.40;;
37483;SDS011;23337;52.212;9.926;2023-08-01T01:06:51;2.33;;;0.80;;
37483;SDS011;23337;52.212;9.926;2023-08-01T01:09:17;0.80;;;0.50;;
37483;SDS011;23337;52.212;9.926;2023-08-01T01:11:43;1.00;;;0.53;;
37483;SDS011;23337;52.212;9.926;2023-08-01T01:14:10;1.57;;;0.50;;
37483;SDS011;23337;52.212;9.926;2023-08-01T01:16:36;0.90;;;0.47;;
37483;SDS011;23337;52.212;9.926;2023-08-01T01:19:05;0.73;;;0.50;;
37483;SDS011;23337;52.212;9.926;2023-08-01T01:21:32;0.87;;;0.50;;
37483;SDS011;23337;52.212;9.926;2023-08-01T01:24:17;1.60;;;0.30;;
37483;SDS011;23337;52.212;9.926;2023-08-01T01:26:44;1.90;;;0.50;;
37483;SDS011;23337;52.212;9.926;2023-08-01T01:29:10;2.47;;;0.60;;
37483;SDS011;23337;52.212;9.926;2023-08-01T01:31:36;1.87;;;0.70;;
37483;SDS011;23337;52.212;9.926;2023-08-01T01:34:02;1.33;;;0.43;;
37483;SDS011;23337;52.212;9.926;2023-08-01T01:36:29;1.47;;;0.50;;
37483;SDS011;23337;52.212;9.926;2023-08-01T01:38:55;1.33;;;0.30;;
37483;SDS011;23337;52.212;9.926;2023-08-01T01:41:21;1.13;;;0.40;;
37483;SDS011;23337;52.212;9.926;2023-08-01T01:43:47;0.87;;;0.40;;
37483;SDS011;23337;52.212;9.926;2023-08-01T01:46:13;1.30;;;0.50;;
37483;SDS011;23337;52.212;9.926;2023-08-01T01:48:39;1.10;;;0.40;;
37483;SDS011;23337;52.212;9.926;2023-08-01T01:51:07;1.13;;;0.40;;
37483;SDS011;23337;52.212;9.926;2023-08-01T01:53:33;0.50;;;0.30;;
37483;SDS011;23337;52.212;9.926;2023-08-01T01:55:59;0.47;;;0.30;;
37483;SDS011;23337;52.212;9.926;2023-08-01T01:58:25;0.20;;;0.20;;
37483;SDS011;23337;52.212;9.926;2023-08-01T02:00:51;0.53;;;0.30;;
37483;SDS011;23337;52.212;9.926;2023-08-01T02:03:16;0.37;;;0.20;;
37483;SDS011;23337;52.212;9.926;2023-08-01T02:05:42;1.30;;;0.20;;
37483;SDS011;23337;52.212;9.926;2023-08-01T02:08:08;0.80;;;0.20;;
37483;SDS011;23337;52.212;9.926;2023-08-01T02:10:34;1.80;;;0.30;;
37483;SDS011;23337;52.212;9.926;2023-08-01T02:13:00;1.13;;;0.30;;
37483;SDS011;23337;52.212;9.926;2023-08-01T02:15:26;0.50;;;0.50;;
37483;SDS011;23337;52.212;9.926;2023-08-01T02:17:52;1.30;;;0.20;;
37483;SDS011;23337;52.212;9.926;2023-08-01T02:20:18;1.83;;;0.30;;
37483;SDS011;23337;52.212;9.926;2023-08-01T02:22:44;2.47;;;0.20;;
37483;SDS011;23337;52.212;9.926;2023-08-01T02:25:10;1.13;;;0.20;;
37483;SDS011;23337;52.212;9.926;2023-08-01T02:27:36;0.20;;;0.10;;
37483;SDS011;23337;52.212;9.926;2023-08-01T02:30:02;0.40;;;0.10;;
37483;SDS011;23337;52.212;9.926;2023-08-01T02:32:30;1.10;;;0.20;;
37483;SDS011;23337;52.212;9.926;2023-08-01T02:34:56;0.80;;;0.20;;
37483;SDS011;23337;52.212;9.926;2023-08-01T02:37:22;0.63;;;0.10;;
37483;SDS011;23337;52.212;9.926;2023-08-01T02:39:48;1.17;;;0.43;;
37483;SDS011;23337;52.212;9.926;2023-08-01T02:42:14;1.10;;;0.20;;
37483;SDS011;23337;52.212;9.926;2023-08-01T02:44:39;0.40;;;0.20;;
37483;SDS011;23337;52.212;9.926;2023-08-01T02:47:05;1.40;;;0.30;;
37483;SDS011;23337;52.212;9.926;2023-08-01T02:49:31;2.20;;;1.03;;
37483;SDS011;23337;52.212;9.926;2023-08-01T02:51:57;0.50;;;0.20;;
37483;SDS011;23337;52.212;9.926;2023-08-01T02:54:24;0.30;;;0.20;;
37483;SDS011;23337;52.212;9.926;2023-08-01T02:56:50;1.47;;;0.30;;
37483;SDS011;23337;52.212;9.926;2023-08-01T02:59:16;0.60;;;0.20;;
37483;SDS011;23337;52.212;9.926;2023-08-01T03:01:45;0.20;;;0.20;;
37483;SDS011;23337;52.212;9.926;2023-08-01T03:04:11;1.23;;;0.20;;
37483;SDS011;23337;52.212;9.926;2023-08-01T03:06:37;0.23;;;0.23;;
37483;SDS011;23337;52.212;9.926;2023-08-01T03:09:03;1.83;;;0.20;;
37483;SDS011;23337;52.212;9.926;2023-08-01T03:11:33;0.10;;;0.10;;
37483;SDS011;23337;52.212;9.926;2023-08-01T03:13:59;0.00;;;0.00;;
37483;SDS011;23337;52.212;9.926;2023-08-01T03:16:25;0.20;;;0.20;;
37483;SDS011;23337;52.212;9.926;2023-08-01T03:18:50;0.67;;;0.10;;
37483;SDS011;23337;52.212;9.926;2023-08-01T03:21:16;1.57;;;0.13;;
37483;SDS011;23337;52.212;9.926;2023-08-01T03:23:42;1.37;;;0.13;;
37483;SDS011;23337;52.212;9.926;2023-08-01T03:26:10;0.20;;;0.10;;
37483;SDS011;23337;52.212;9.926;2023-08-01T03:28:36;0.63;;;0.10;;
37483;SDS011;23337;52.212;9.926;2023-08-01T03:31:02;0.57;;;0.30;;
37483;SDS011;23337;52.212;9.926;2023-08-01T03:33:28;0.33;;;0.10;;
37483;SDS011;23337;52.212;9.926;2023-08-01T03:35:54;1.13;;;0.30;;
37483;SDS011;23337;52.212;9.926;2023-08-01T03:38:20;0.60;;;0.30;;
37483;SDS011;23337;52.212;9.926;2023-08-01T03:40:46;0.20;;;0.10;;
37483;SDS011;23337;52.212;9.926;2023-08-01T03:43:12;0.30;;;0.10;;
37483;SDS011;23337;52.212;9.926;2023-08-01T03:45:38;0.13;;;0.10;;
37483;SDS011;23337;52.212;9.926;2023-08-01T03:48:04;2.17;;;0.20;;
37483;SDS011;23337;52.212;9.926;2023-08-01T03:50:30;5.63;;;1.07;;
37483;SDS011;23337;52.212;9.926;2023-08-01T03:52:55;2.33;;;0.20;;
37483;SDS011;23337;52.212;9.926;2023-08-01T03:55:21;0.60;;;0.20;;
37483;SDS011;23337;52.212;9.926;2023-08-01T03:57:47;0.70;;;0.10;;
37483;SDS011;23337;52.212;9.926;2023-08-01T04:00:13;0.90;;;0.10;;
37483;SDS011;23337;52.212;9.926;2023-08-01T04:02:42;1.80;;;0.10;;
37483;SDS011;23337;52.212;9.926;2023-08-01T04:05:08;0.87;;;0.13;;
37483;SDS011;23337;52.212;9.926;2023-08-01T04:07:35;0.73;;;0.30;;
37483;SDS011;23337;52.212;9.926;2023-08-01T04:10:01;0.17;;;0.10;;
37483;SDS011;23337;52.212;9.926;2023-08-01T04:12:28;0.30;;;0.10;;
37483;SDS011;23337;52.212;9.926;2023-08-01T04:14:54;0.97;;;0.10;;
37483;SDS011;23337;52.212;9.926;2023-08-01T04:17:20;0.57;;;0.10;;
37483;SDS011;23337;52.212;9.926;2023-08-01T04:19:46;0.33;;;0.20;;
37483;SDS011;23337;52.212;9.926;2023-08-01T04:22:11;0.40;;;0.20;;
37483;SDS011;23337;52.212;9.926;2023-08-01T04:24:37;0.20;;;0.10;;
37483;SDS011;23337;52.212;9.926;2023-08-01T04:27:03;0.60;;;0.10;;
37483;SDS011;23337;52.212;9.926;2023-08-01T04:29:29;1.70;;;0.10;;
37483;SDS011;23337;52.212;9.926;2023-08-01T04:31:55;1.23;;;0.23;;
37483;SDS011;23337;52.212;9.926;2023-08-01T04:34:22;0.23;;;0.10;;
37483;SDS011;23337;52.212;9.926;2023-08-01T04:36:48;0.40;;;0.20;;
37483;SDS011;23337;52.212;9.926;2023-08-01T04:39:14;0.10;;;0.10;;
37483;SDS011;23337;52.212;9.926;2023-08-01T04:41:40;0.10;;;0.10;;
37483;SDS011;23337;52.212;9.926;2023-08-01T04:44:06;0.30;;;0.00;;
37483;SDS011;23337;52.212;9.926;2023-08-01T04:46:32;0.30;;;0.10;;
37483;SDS011;23337;52.212;9.926;2023-08-01T04:48:58;0.30;;;0.20;;
37483;SDS011;23337;52.212;9.926;2023-08-01T04:51:24;1.17;;;0.17;;
37483;SDS011;23337;52.212;9.926;2023-08-01T04:53:50;3.07;;;0.80;;
37483;SDS011;23337;52.212;9.926;2023-08-01T04:56:16;0.27;;;0.20;;
37483;SDS011;23337;52.212;9.926;2023-08-01T04:58:42;1.17;;;0.27;;
37483;SDS011;23337;52.212;9.926;2023-08-01T05:01:08;0.30;;;0.20;;
37483;SDS011;23337;52.212;9.926;2023-08-01T05:03:34;1.17;;;0.30;;
37483;SDS011;23337;52.212;9.926;2023-08-01T05:06:00;0.87;;;0.37;;
37483;SDS011;23337;52.212;9.926;2023-08-01T05:08:26;0.40;;;0.10;;
37483;SDS011;23337;52.212;9.926;2023-08-01T05:10:52;0.93;;;0.60;;
37483;SDS011;23337;52.212;9.926;2023-08-01T05:13:18;0.33;;;0.20;;
37483;SDS011;23337;52.212;9.926;2023-08-01T05:15:44;0.90;;;0.10;;
37483;SDS011;23337;52.212;9.926;2023-08-01T05:18:12;1.33;;;0.30;;
37483;SDS011;23337;52.212;9.926;2023-08-01T05:20:38;1.83;;;0.20;;
37483;SDS011;23337;52.212;9.926;2023-08-01T05:23:04;0.30;;;0.30;;
37483;SDS011;23337;52.212;9.926;2023-08-01T05:25:30;0.60;;;0.20;;
37483;SDS011;23337;52.212;9.926;2023-08-01T05:27:56;4.37;;;0.57;;
37483;SDS011;23337;52.212;9.926;2023-08-01T05:30:22;0.73;;;0.50;;
37483;SDS011;23337;52.212;9.926;2023-08-01T05:32:48;0.43;;;0.33;;
37483;SDS011;23337;52.212;9.926;2023-08-01T05:35:14;2.60;;;0.50;;
37483;SDS011;23337;52.212;9.926;2023-08-01T05:37:40;0.80;;;0.30;;
37483;SDS011;23337;52.212;9.926;2023-08-01T05:40:06;0.53;;;0.30;;
37483;SDS011;23337;52.212;9.926;2023-08-01T05:42:32;1.00;;;0.30;;
37483;SDS011;23337;52.212;9.926;2023-08-01T05:44:58;0.20;;;0.20;;
37483;SDS011;23337;52.212;9.926;2023-08-01T05:47:24;1.10;;;0.33;;
37483;SDS011;23337;52.212;9.926;2023-08-01T05:49:50;0.70;;;0.60;;
37483;SDS011;23337;52.212;9.926;2023-08-01T05:52:16;0.73;;;0.40;;
37483;SDS011;23337;52.212;9.926;2023-08-01T05:54:42;0.50;;;0.50;;
37483;SDS011;23337;52.212;9.926;2023-08-01T05:57:08;0.70;;;0.37;;
37483;SDS011;23337;52.212;9.926;2023-08-01T05:59:34;1.43;;;0.60;;
37483;SDS011;23337;52.212;9.926;2023-08-01T06:02:00;1.60;;;0.70;;
37483;SDS011;23337;52.212;9.926;2023-08-01T06:04:26;1.10;;;0.50;;
37483;SDS011;23337;52.212;9.926;2023-08-01T06:06:52;0.70;;;0.60;;
37483;SDS011;23337;52.212;9.926;2023-08-01T06:09:18;0.80;;;0.67;;
37483;SDS011;23337;52.212;9.926;2023-08-01T06:11:44;1.00;;;0.93;;
37483;SDS011;23337;52.212;9.926;2023-08-01T06:14:10;2.10;;;0.70;;
37483;SDS011;23337;52.212;9.926;2023-08-01T06:16:36;2.07;;;0.70;;
37483;SDS011;23337;52.212;9.926;2023-08-01T06:19:02;1.27;;;0.83;;
37483;SDS011;23337;52.212;9.926;2023-08-01T06:21:29;2.70;;;1.00;;
37483;SDS011;23337;52.212;9.926;2023-08-01T06:23:55;1.43;;;0.93;;
37483;SDS011;23337;52.212;9.926;2023-08-01T06:26:20;1.77;;;0.80;;
37483;SDS011;23337;52.212;9.926;2023-08-01T06:28:46;2.40;;;0.70;;
37483;SDS011;23337;52.212;9.926;2023-08-01T06:31:12;1.37;;;1.03;;
37483;SDS011;23337;52.212;9.926;2023-08-01T06:33:38;1.07;;;0.87;;
37483;SDS011;23337;52.212;9.926;2023-08-01T06:36:05;2.43;;;0.80;;
37483;SDS011;23337;52.212;9.926;2023-08-01T06:38:31;0.83;;;0.60;;
37483;SDS011;23337;52.212;9.926;2023-08-01T06:40:57;1.43;;;0.80;;
37483;SDS011;23337;52.212;9.926;2023-08-01T06:43:23;1.67;;;0.60;;
37483;SDS011;23337;52.212;9.926;2023-08-01T06:45:49;1.83;;;0.43;;
37483;SDS011;23337;52.212;9.926;2023-08-01T06:48:15;0.80;;;0.70;;
37483;SDS011;23337;52.212;9.926;2023-08-01T06:50:41;1.33;;;0.73;;
37483;SDS011;23337;52.212;9.926;2023-08-01T06:53:07;2.60;;;1.00;;
37483;SDS011;23337;52.212;9.926;2023-08-01T06:55:33;1.10;;;0.67;;
37483;SDS011;23337;52.212;9.926;2023-08-01T06:57:59;0.70;;;0.57;;
37483;SDS011;23337;52.212;9.926;2023-08-01T07:00:25;1.10;;;0.90;;
37483;SDS011;23337;52.212;9.926;2023-08-01T07:02:51;1.47;;;1.27;;
37483;SDS011;23337;52.212;9.926;2023-08-01T07:05:17;2.30;;;1.27;;
37483;SDS011;23337;52.212;9.926;2023-08-01T07:07:43;3.83;;;0.90;;
37483;SDS011;23337;52.212;9.926;2023-08-01T07:10:09;1.57;;;0.90;;
37483;SDS011;23337;52.212;9.926;2023-08-01T07:12:35;1.10;;;0.80;;
37483;SDS011;23337;52.212;9.926;2023-08-01T07:15:01;1.50;;;1.10;;
37483;SDS011;23337;52.212;9.926;2023-08-01T07:17:27;1.20;;;1.10;;
37483;SDS011;23337;52.212;9.926;2023-08-01T07:19:53;2.00;;;1.37;;
37483;SDS011;23337;52.212;9.926;2023-08-01T07:22:19;3.70;;;2.00;;
37483;SDS011;23337;52.212;9.926;2023-08-01T07:24:45;2.50;;;1.50;;
37483;SDS011;23337;52.212;9.926;2023-08-01T07:27:11;4.83;;;1.87;;
37483;SDS011;23337;52.212;9.926;2023-08-01T07:29:37;4.07;;;2.13;;
37483;SDS011;23337;52.212;9.926;2023-08-01T07:32:04;4.07;;;2.00;;
37483;SDS011;23337;52.212;9.926;2023-08-01T07:34:30;2.20;;;2.00;;
37483;SDS011;23337;52.212;9.926;2023-08-01T07:36:56;5.50;;;2.87;;
37483;SDS011;23337;52.212;9.926;2023-08-01T07:39:21;3.70;;;2.60;;
37483;SDS011;23337;52.212;9.926;2023-08-01T07:41:47;3.33;;;2.57;;
37483;SDS011;23337;52.212;9.926;2023-08-01T07:44:13;4.20;;;2.43;;
37483;SDS011;23337;52.212;9.926;2023-08-01T07:46:39;6.03;;;3.33;;
37483;SDS011;23337;52.212;9.926;2023-08-01T07:49:05;6.20;;;3.07;;
37483;SDS011;23337;52.212;9.926;2023-08-01T07:51:31;3.43;;;2.70;;
37483;SDS011;23337;52.212;9.926;2023-08-01T07:53:58;4.43;;;3.10;;
37483;SDS011;23337;52.212;9.926;2023-08-01T07:56:24;2.90;;;2.50;;
37483;SDS011;23337;52.212;9.926;2023-08-01T07:58:50;3.97;;;2.80;;
37483;SDS011;23337;52.212;9.926;2023-08-01T08:01:16;4.53;;;3.23;;
37483;SDS011;23337;52.212;9.926;2023-08-01T08:03:42;6.33;;;4.63;;
37483;SDS011;23337;52.212;9.926;2023-08-01T08:06:08;6.40;;;4.30;;
37483;SDS011;23337;52.212;9.926;2023-08-01T08:08:34;4.13;;;3.40;;
37483;SDS011;23337;52.212;9.926;2023-08-01T08:11:01;6.43;;;4.00;;
37483;SDS011;23337;52.212;9.926;2023-08-01T08:13:27;7.13;;;4.10;;
37483;SDS011;23337;52.212;9.926;2023-08-01T08:15:57;8.60;;;4.17;;
37483;SDS011;23337;52.212;9.926;2023-08-01T08:18:23;9.63;;;5.00;;
37483;SDS011;23337;52.212;9.926;2023-08-01T08:20:49;4.50;;;3.67;;
37483;SDS011;23337;52.212;9.926;2023-08-01T08:23:15;6.00;;;3.47;;
37483;SDS011;23337;52.212;9.926;2023-08-01T08:25:44;5.03;;;3.33;;
37483;SDS011;23337;52.212;9.926;2023-08-01T08:28:12;7.50;;;3.80;;
37483;SDS011;23337;52.212;9.926;2023-08-01T08:30:38;7.60;;;4.23;;
37483;SDS011;23337;52.212;9.926;2023-08-01T08:33:04;5.67;;;3.83;;
37483;SDS011;23337;52.212;9.926;2023-08-01T08:35:32;6.30;;;3.50;;
37483;SDS011;23337;52.212;9.926;2023-08-01T08:37:59;6.90;;;3.87;;
37483;SDS011;23337;52.212;9.926;2023-08-01T08:40:25;3.83;;;3.40;;
37483;SDS011;23337;52.212;9.926;2023-08-01T08:42:52;7.20;;;4.00;;
37483;SDS011;23337;52.212;9.926;2023-08-01T08:45:19;5.80;;;3.60;;
37483;SDS011;23337;52.212;9.926;2023-08-01T08:47:46;5.23;;;3.27;;
37483;SDS011;23337;52.212;9.926;2023-08-01T08:50:14;6.83;;;3.40;;
37483;SDS011;23337;52.212;9.926;2023-08-01T08:52:40;5.73;;;3.83;;
37483;SDS011;23337;52.212;9.926;2023-08-01T08:55:06;5.90;;;2.93;;
37483;SDS011;23337;52.212;9.926;2023-08-01T08:57:33;6.07;;;4.07;;
37483;SDS011;23337;52.212;9.926;2023-08-01T09:00:00;5.70;;;3.77;;
37483;SDS011;23337;52.212;9.926;2023-08-01T09:02:29;6.47;;;4.03;;
37483;SDS011;23337;52.212;9.926;2023-08-01T09:04:57;7.17;;;3.33;;
37483;SDS011;23337;52.212;9.926;2023-08-01T09:07:23;6.17;;;4.10;;
37483;SDS011;23337;52.212;9.926;2023-08-01T09:09:49;6.77;;;3.50;;
37483;SDS011;23337;52.212;9.926;2023-08-01T09:12:15;5.30;;;3.07;;
37483;SDS011;23337;52.212;9.926;2023-08-01T09:14:42;5.00;;;2.70;;
37483;SDS011;23337;52.212;9.926;2023-08-01T09:17:08;3.27;;;2.97;;
37483;SDS011;23337;52.212;9.926;2023-08-01T09:19:34;4.07;;;2.80;;
37483;SDS011;23337;52.212;9.926;2023-08-01T09:22:00;4.30;;;2.97;;
37483;SDS011;23337;52.212;9.926;2023-08-01T09:24:26;4.30;;;2.20;;
37483;SDS011;23337;52.212;9.926;2023-08-01T09:26:52;3.40;;;2.60;;
37483;SDS011;23337;52.212;9.926;2023-08-01T09:29:27;5.03;;;2.73;;
37483;SDS011;23337;52.212;9.926;2023-08-01T09:31:54;3.77;;;2.20;;
37483;SDS011;23337;52.212;9.926;2023-08-01T09:34:24;4.90;;;2.87;;
37483;SDS011;23337;52.212;9.926;2023-08-01T09:36:50;2.70;;;1.87;;
37483;SDS011;23337;52.212;9.926;2023-08-01T09:39:17;3.30;;;1.90;;
37483;SDS011;23337;52.212;9.926;2023-08-01T09:41:43;6.33;;;2.93;;
37483;SDS011;23337;52.212;9.926;2023-08-01T09:44:16;4.50;;;2.33;;
37483;SDS011;23337;52.212;9.926;2023-08-01T09:46:42;5.50;;;2.53;;
37483;SDS011;23337;52.212;9.926;2023-08-01T09:49:11;3.43;;;1.97;;
37483;SDS011;23337;52.212;9.926;2023-08-01T09:51:47;4.73;;;2.60;;
37483;SDS011;23337;52.212;9.926;2023-08-01T09:54:16;6.43;;;3.13;;
37483;SDS011;23337;52.212;9.926;2023-08-01T09:56:46;3.57;;;2.10;;
37483;SDS011;23337;52.212;9.926;2023-08-01T09:59:13;5.07;;;2.60;;
37483;SDS011;23337;52.212;9.926;2023-08-01T10:01:41;5.33;;;2.50;;
37483;SDS011;23337;52.212;9.926;2023-08-01T10:04:10;3.97;;;2.00;;
37483;SDS011;23337;52.212;9.926;2023-08-01T10:06:37;3.43;;;2.23;;
37483;SDS011;23337;52.212;9.926;2023-08-01T10:09:03;4.80;;;2.00;;
37483;SDS011;23337;52.212;9.926;2023-08-01T10:11:30;6.13;;;2.60;;
37483;SDS011;23337;52.212;9.926;2023-08-01T10:13:56;3.27;;;2.20;;
37483;SDS011;23337;52.212;9.926;2023-08-01T10:16:21;5.00;;;2.50;;
37483;SDS011;23337;52.212;9.926;2023-08-01T10:18:48;3.17;;;2.17;;
37483;SDS011;23337;52.212;9.926;2023-08-01T10:21:15;3.67;;;1.93;;
37483;SDS011;23337;52.212;9.926;2023-08-01T10:23:42;4.23;;;1.97;;
37483;SDS011;23337;52.212;9.926;2023-08-01T10:26:08;4.70;;;2.00;;
37483;SDS011;23337;52.212;9.926;2023-08-01T10:28:39;2.67;;;1.90;;
37483;SDS011;23337;52.212;9.926;2023-08-01T10:33:40;2.50;;;1.50;;
37483;SDS011;23337;52.212;9.926;2023-08-01T10:36:19;2.30;;;1.37;;
37483;SDS011;23337;52.212;9.926;2023-08-01T10:38:49;4.73;;;1.93;;
37483;SDS011;23337;52.212;9.926;2023-08-01T10:41:19;2.40;;;1.80;;
37483;SDS011;23337;52.212;9.926;2023-08-01T10:43:45;4.00;;;1.60;;
37483;SDS011;23337;52.212;9.926;2023-08-01T10:46:11;2.57;;;1.43;;
37483;SDS011;23337;52.212;9.926;2023-08-01T10:48:50;3.03;;;1.57;;
37483;SDS011;23337;52.212;9.926;2023-08-01T10:51:16;2.83;;;1.63;;
37483;SDS011;23337;52.212;9.926;2023-08-01T10:53:42;3.03;;;1.27;;
37483;SDS011;23337;52.212;9.926;2023-08-01T10:56:15;3.97;;;1.77;;
37483;SDS011;23337;52.212;9.926;2023-08-01T10:58:41;3.27;;;1.30;;
37483;SDS011;23337;52.212;9.926;2023-08-01T11:01:07;1.63;;;1.40;;
37483;SDS011;23337;52.212;9.926;2023-08-01T11:03:37;3.97;;;1.70;;
37483;SDS011;23337;52.212;9.926;2023-08-01T11:06:03;2.87;;;1.30;;
37483;SDS011;23337;52.212;9.926;2023-08-01T11:08:39;2.43;;;1.07;;
37483;SDS011;23337;52.212;9.926;2023-08-01T11:11:05;2.70;;;1.50;;
37483;SDS011;23337;52.212;9.926;2023-08-01T11:13:33;4.77;;;1.53;;
37483;SDS011;23337;52.212;9.926;2023-08-01T11:16:01;2.17;;;1.30;;
37483;SDS011;23337;52.212;9.926;2023-08-01T11:18:27;3.60;;;1.30;;
37483;SDS011;23337;52.212;9.926;2023-08-01T11:20:53;3.03;;;1.10;;
37483;SDS011;23337;52.212;9.926;2023-08-01T11:23:27;3.33;;;1.50;;
37483;SDS011;23337;52.212;9.926;2023-08-01T11:25:52;3.03;;;1.60;;
37483;SDS011;23337;52.212;9.926;2023-08-01T11:28:19;3.87;;;1.87;;
37483;SDS011;23337;52.212;9.926;2023-08-01T11:30:45;2.17;;;1.50;;
37483;SDS011;23337;52.212;9.926;2023-08-01T11:33:15;3.20;;;1.90;;
37483;SDS011;23337;52.212;9.926;2023-08-01T11:35:41;2.40;;;1.60;;
37483;SDS011;23337;52.212;9.926;2023-08-01T11:38:08;3.50;;;2.40;;
37483;SDS011;23337;52.212;9.926;2023-08-01T11:40:34;2.57;;;1.73;;
37483;SDS011;23337;52.212;9.926;2023-08-01T11:43:00;2.50;;;1.40;;
37483;SDS011;23337;52.212;9.926;2023-08-01T11:45:26;2.40;;;1.73;;
37483;SDS011;23337;52.212;9.926;2023-08-01T11:47:52;2.27;;;1.77;;
37483;SDS011;23337;52.212;9.926;2023-08-01T11:50:21;2.00;;;1.37;;
37483;SDS011;23337;52.212;9.926;2023-08-01T11:52:48;3.10;;;1.60;;
37483;SDS011;23337;52.212;9.926;2023-08-01T11:55:21;2.63;;;1.73;;
37483;SDS011;23337;52.212;9.926;2023-08-01T11:57:53;2.47;;;1.83;;
37483;SDS011;23337;52.212;9.926;2023-08-01T12:00:23;4.67;;;2.43;;
37483;SDS011;23337;52.212;9.926;2023-08-01T12:02:49;2.77;;;2.13;;
37483;SDS011;23337;52.212;9.926;2023-08-01T12:05:22;3.03;;;2.20;;
37483;SDS011;23337;52.212;9.926;2023-08-01T12:07:48;3.40;;;2.13;;
37483;SDS011;23337;52.212;9.926;2023-08-01T12:10:14;3.17;;;2.03;;
37483;SDS011;23337;52.212;9.926;2023-08-01T12:12:44;4.27;;;1.80;;
37483;SDS011;23337;52.212;9.926;2023-08-01T12:15:10;3.50;;;1.90;;
37483;SDS011;23337;52.212;9.926;2023-08-01T12:17:36;2.20;;;1.80;;
37483;SDS011;23337;52.212;9.926;2023-08-01T12:20:02;4.23;;;2.63;;
37483;SDS011;23337;52.212;9.926;2023-08-01T12:22:28;2.27;;;2.00;;
37483;SDS011;23337;52.212;9.926;2023-08-01T12:24:54;3.27;;;2.03;;
37483;SDS011;23337;52.212;9.926;2023-08-01T12:27:20;3.97;;;2.63;;
37483;SDS011;23337;52.212;9.926;2023-08-01T12:29:46;2.70;;;2.10;;
37483;SDS011;23337;52.212;9.926;2023-08-01T12:32:12;2.93;;;2.30;;
37483;SDS011;23337;52.212;9.926;2023-08-01T12:34:39;3.47;;;2.00;;
37483;SDS011;23337;52.212;9.926;2023-08-01T12:37:05;4.50;;;2.70;;
37483;SDS011;23337;52.212;9.926;2023-08-01T12:39:31;4.00;;;3.10;;
37483;SDS011;23337;52.212;9.926;2023-08-01T12:41:57;6.83;;;2.70;;
37483;SDS011;23337;52.212;9.926;2023-08-01T12:44:22;5.10;;;2.60;;
37483;SDS011;23337;52.212;9.926;2023-08-01T12:46:48;2.93;;;2.63;;
37483;SDS011;23337;52.212;9.926;2023-08-01T12:49:14;3.13;;;2.50;;
37483;SDS011;23337;52.212;9.926;2023-08-01T12:51:40;3.63;;;2.03;;
37483;SDS011;23337;52.212;9.926;2023-08-01T12:54:06;2.63;;;2.17;;
37483;SDS011;23337;52.212;9.926;2023-08-01T12:56:32;3.50;;;1.93;;
37483;SDS011;23337;52.212;9.926;2023-08-01T12:58:58;2.83;;;1.97;;
37483;SDS011;23337;52.212;9.926;2023-08-01T13:01:24;3.30;;;1.73;;
37483;SDS011;23337;52.212;9.926;2023-08-01T13:03:50;3.37;;;1.70;;
37483;SDS011;23337;52.212;9.926;2023-08-01T13:06:16;2.63;;;1.90;;
37483;SDS011;23337;52.212;9.926;2023-08-01T13:08:42;1.90;;;1.73;;
37483;SDS011;23337;52.212;9.926;2023-08-01T13:11:12;5.47;;;1.90;;
37483;SDS011;23337;52.212;9.926;2023-08-01T13:13:42;4.23;;;1.63;;
37483;SDS011;23337;52.212;9.926;2023-08-01T13:16:08;2.00;;;1.70;;
37483;SDS011;23337;52.212;9.926;2023-08-01T13:18:34;5.30;;;2.90;;
37483;SDS011;23337;52.212;9.926;2023-08-01T13:21:00;3.80;;;1.67;;
37483;SDS011;23337;52.212;9.926;2023-08-01T13:23:26;1.93;;;1.40;;
37483;SDS011;23337;52.212;9.926;2023-08-01T13:25:52;1.97;;;1.47;;
37483;SDS011;23337;52.212;9.926;2023-08-01T13:28:18;1.93;;;1.40;;
37483;SDS011;23337;52.212;9.926;2023-08-01T13:30:44;2.07;;;1.40;;
37483;SDS011;23337;52.212;9.926;2023-08-01T13:33:10;3.17;;;1.50;;
37483;SDS011;23337;52.212;9.926;2023-08-01T13:35:37;1.97;;;1.50;;
37483;SDS011;23337;52.212;9.926;2023-08-01T13:38:03;1.00;;;0.97;;
37483;SDS011;23337;52.212;9.926;2023-08-01T13:40:30;2.63;;;1.60;;
37483;SDS011;23337;52.212;9.926;2023-08-01T13:42:56;3.87;;;1.70;;
37483;SDS011;23337;52.212;9.926;2023-08-01T13:45:22;2.73;;;1.63;;
37483;SDS011;23337;52.212;9.926;2023-08-01T13:47:48;3.50;;;1.80;;
37483;SDS011;23337;52.212;9.926;2023-08-01T13:50:13;4.40;;;2.27;;
37483;SDS011;23337;52.212;9.926;2023-08-01T13:52:39;3.47;;;1.93;;
37483;SDS011;23337;52.212;9.926;2023-08-01T13:55:05;4.67;;;1.90;;
37483;SDS011;23337;52.212;9.926;2023-08-01T13:57:32;4.07;;;2.50;;
37483;SDS011;23337;52.212;9.926;2023-08-01T13:59:58;3.57;;;2.20;;
37483;SDS011;23337;52.212;9.926;2023-08-01T14:02:24;3.33;;;2.60;;
37483;SDS011;23337;52.212;9.926;2023-08-01T14:04:52;4.13;;;2.97;;
37483;SDS011;23337;52.212;9.926;2023-08-01T14:07:18;5.67;;;3.03;;
37483;SDS011;23337;52.212;9.926;2023-08-01T14:09:44;3.17;;;2.60;;
37483;SDS011;23337;52.212;9.926;2023-08-01T14:12:10;3.00;;;2.70;;
37483;SDS011;23337;52.212;9.926;2023-08-01T14:14:36;3.47;;;3.17;;
37483;SDS011;23337;52.212;9.926;2023-08-01T14:17:02;5.50;;;3.63;;
37483;SDS011;23337;52.212;9.926;2023-08-01T14:19:29;3.13;;;2.50;;
37483;SDS011;23337;52.212;9.926;2023-08-01T14:21:55;3.40;;;2.30;;
37483;SDS011;23337;52.212;9.926;2023-08-01T14:24:22;3.67;;;1.73;;
37483;SDS011;23337;52.212;9.926;2023-08-01T14:26:48;1.33;;;1.20;;
37483;SDS011;23337;52.212;9.926;2023-08-01T14:29:16;2.17;;;1.27;;
37483;SDS011;23337;52.212;9.926;2023-08-01T14:31:43;1.10;;;0.60;;
37483;SDS011;23337;52.212;9.926;2023-08-01T14:34:09;3.80;;;1.20;;
37483;SDS011;23337;52.212;9.926;2023-08-01T14:36:35;2.87;;;0.80;;
37483;SDS011;23337;52.212;9.926;2023-08-01T14:39:01;3.13;;;1.03;;
37483;SDS011;23337;52.212;9.926;2023-08-01T14:41:28;1.80;;;0.90;;
37483;SDS011;23337;52.212;9.926;2023-08-01T14:43:54;2.57;;;0.90;;
37483;SDS011;23337;52.212;9.926;2023-08-01T14:46:20;1.50;;;0.80;;